Time;durP1;ratioP1;P1;durP2;ratioP2;P2;SDS_P1;SDS_P2;PMS_P1;PMS_P2;Temp;Humidity;BMP_temperature;BMP_pressure;BME280_temperature;BME280_humidity;BME280_pressure;Samples;Min_cycle;Max_cycle;Signal;HPM_P1;HPM_P2
2021/07/01 05:54:53;;;;;;;7.97;5.07;;;;;;;;;;10610974;27;1502455;-84
2021/07/01 06:00:17;;;;;;;4.85;3.88;;;;;;;;;;10629621;28;20057;-84
2021/07/01 06:05:26;;;;;;;6.07;4.45;;;;;;;;;;10631024;27;20019;-85
2021/07/01 06:10:31;;;;;;;5.10;3.13;;;;;;;;;;10608942;28;20038;-86
2021/07/01 06:15:53;;;;;;;3.70;2.75;;;;;;;;;;10625625;27;20027;-86
2021/07/01 06:20:58;;;;;;;4.00;3.00;;;;;;;;;;10624671;27;20446;-86
2021/07/01 06:26:00;;;;;;;5.03;4.10;;;;;;;;;;10623317;27;20111;-86
2021/07/01 06:31:04;;;;;;;4.47;3.55;;;;;;;;;;10606356;28;20114;-86
2021/07/01 06:36:06;;;;;;;4.53;3.38;;;;;;;;;;10623187;27;20049;-83
2021/07/01 06:41:10;;;;;;;8.02;5.20;;;;;;;;;;10622696;28;20027;-84
2021/07/01 06:46:12;;;;;;;6.38;4.95;;;;;;;;;;10621949;27;20066;-86
2021/07/01 06:51:26;;;;;;;5.05;4.18;;;;;;;;;;10620331;28;20382;-85
2021/07/01 06:56:43;;;;;;;5.05;4.00;;;;;;;;;;10607493;28;20117;-85
2021/07/01 07:02:03;;;;;;;3.38;2.58;;;;;;;;;;10599764;28;20039;-84
2021/07/01 07:07:07;;;;;;;3.08;2.60;;;;;;;;;;10598817;28;20016;-85
2021/07/01 07:12:08;;;;;;;3.78;2.97;;;;;;;;;;10597225;28;20016;-84
2021/07/01 07:17:12;;;;;;;3.25;2.92;;;;;;;;;;10598137;28;20016;-84
2021/07/01 07:22:28;;;;;;;4.60;3.70;;;;;;;;;;10598991;28;20034;-83
2021/07/01 07:27:30;;;;;;;5.45;3.90;;;;;;;;;;10598211;28;20024;-83
2021/07/01 07:32:33;;;;;;;6.75;4.68;;;;;;;;;;10596160;28;20032;-84
2021/07/01 07:37:35;;;;;;;6.22;4.70;;;;;;;;;;10599462;28;20024;-84
2021/07/01 07:42:36;;;;;;;5.18;4.05;;;;;;;;;;10596552;28;20036;-82
2021/07/01 07:47:37;;;;;;;5.90;4.53;;;;;;;;;;10595133;28;20019;-84
2021/07/01 07:52:44;;;;;;;5.82;4.25;;;;;;;;;;10599587;28;20098;-83
2021/07/01 07:57:46;;;;;;;5.65;4.45;;;;;;;;;;10598171;28;20031;-81
2021/07/01 08:03:01;;;;;;;7.53;4.15;;;;;;;;;;10597786;28;20054;-81
2021/07/01 08:08:03;;;;;;;6.00;4.70;;;;;;;;;;10600656;28;20473;-83
2021/07/01 08:13:05;;;;;;;6.05;3.55;;;;;;;;;;10599186;28;20027;-83
2021/07/01 08:18:07;;;;;;;4.88;3.63;;;;;;;;;;10600062;28;20374;-82
2021/07/01 08:23:17;;;;;;;6.70;3.80;;;;;;;;;;10604931;28;20023;-84
2021/07/01 08:28:22;;;;;;;5.68;3.67;;;;;;;;;;10604826;28;20492;-83
2021/07/01 08:33:28;;;;;;;5.40;3.75;;;;;;;;;;10597960;28;20024;-84
2021/07/01 08:38:40;;;;;;;5.50;3.67;;;;;;;;;;10609128;28;20050;-81
2021/07/01 08:43:42;;;;;;;7.18;3.58;;;;;;;;;;10598086;28;20031;-81
2021/07/01 08:49:03;;;;;;;6.15;3.80;;;;;;;;;;10620867;28;20087;-84
2021/07/01 08:54:08;;;;;;;4.75;3.58;;;;;;;;;;10602418;28;20107;-85
2021/07/01 08:59:09;;;;;;;4.82;3.40;;;;;;;;;;10622656;28;20064;-84
2021/07/01 09:04:11;;;;;;;7.07;3.15;;;;;;;;;;10614792;28;20034;-85
2021/07/01 09:09:13;;;;;;;5.82;3.08;;;;;;;;;;10615938;28;20080;-85
2021/07/01 09:14:50;;;;;;;5.10;2.83;;;;;;;;;;10617108;28;20027;-85
2021/07/01 09:38:11;;;;;;;8.40;3.43;;;;;;;;;;10412984;28;20026;-83
2021/07/01 09:43:13;;;;;;;5.50;3.33;;;;;;;;;;10456498;28;20032;-84
2021/07/01 09:48:39;;;;;;;6.80;3.55;;;;;;;;;;10523762;28;20023;-83
2021/07/01 09:54:11;;;;;;;5.85;3.78;;;;;;;;;;10524250;28;20080;-84
2021/07/01 09:59:28;;;;;;;7.40;3.80;;;;;;;;;;10596959;28;20092;-84
2021/07/01 10:04:38;;;;;;;5.63;3.58;;;;;;;;;;10601403;28;20035;-84
2021/07/01 10:10:14;;;;;;;6.40;4.15;;;;;;;;;;10589208;28;20023;-84
2021/07/01 10:15:25;;;;;;;9.05;4.45;;;;;;;;;;10596442;28;20034;-84
2021/07/01 10:20:32;;;;;;;4.85;3.75;;;;;;;;;;10595313;28;20028;-82
2021/07/01 10:25:35;;;;;;;6.18;3.78;;;;;;;;;;10593581;28;20504;-84
2021/07/01 10:30:37;;;;;;;8.10;4.03;;;;;;;;;;10594735;28;20032;-82
2021/07/01 10:35:39;;;;;;;6.13;3.45;;;;;;;;;;10599538;28;20027;-82
2021/07/01 10:40:42;;;;;;;4.95;3.60;;;;;;;;;;10599838;28;20409;-82
2021/07/01 10:45:53;;;;;;;4.75;3.65;;;;;;;;;;10602721;28;20054;-83
2021/07/01 10:50:55;;;;;;;5.03;3.60;;;;;;;;;;10602085;28;20019;-84
2021/07/01 10:55:59;;;;;;;4.40;3.22;;;;;;;;;;10612412;22;20033;-80
2021/07/01 11:01:01;;;;;;;4.97;3.78;;;;;;;;;;10502879;28;20423;-82
2021/07/01 11:06:03;;;;;;;4.22;3.50;;;;;;;;;;10503460;28;20111;-81
2021/07/01 11:11:05;;;;;;;3.60;3.28;;;;;;;;;;10502627;28;20055;-81
2021/07/01 11:16:13;;;;;;;3.83;3.30;;;;;;;;;;10504177;28;20050;-81
2021/07/01 11:21:15;;;;;;;3.90;3.22;;;;;;;;;;10527638;28;20055;-79
2021/07/01 11:26:30;;;;;;;4.75;3.20;;;;;;;;;;10526547;28;20459;-81
2021/07/01 11:31:35;;;;;;;3.55;2.97;;;;;;;;;;10520290;28;20086;-80
2021/07/01 11:36:37;;;;;;;5.72;3.00;;;;;;;;;;10498848;28;20048;-82
2021/07/01 11:41:38;;;;;;;3.65;3.22;;;;;;;;;;10501322;28;20135;-80
2021/07/01 11:46:42;;;;;;;3.55;2.90;;;;;;;;;;10524437;28;20108;-82
2021/07/01 11:51:43;;;;;;;5.47;2.83;;;;;;;;;;10503211;28;20031;-82
2021/07/01 12:02:15;;;;;;;3.28;2.50;;;;;;;;;;10507423;28;20028;-82
2021/07/01 12:07:23;;;;;;;4.53;2.30;;;;;;;;;;10500643;28;20024;-83
2021/07/01 12:12:27;;;;;;;2.95;2.35;;;;;;;;;;10502285;28;20024;-82
2021/07/01 12:17:47;;;;;;;4.20;1.98;;;;;;;;;;10517303;28;20084;-82
2021/07/01 12:22:49;;;;;;;;;;;;;;;;;;10496631;28;20133;-86
2021/07/01 12:28:10;;;;;;;2.38;1.90;;;;;;;;;;10498272;28;20007;-83
2021/07/01 12:33:34;;;;;;;4.78;1.83;;;;;;;;;;10506071;28;20024;-83
2021/07/01 12:38:36;;;;;;;3.15;2.50;;;;;;;;;;10509275;28;20020;-83
2021/07/01 12:43:52;;;;;;;3.42;2.03;;;;;;;;;;10503533;28;20024;-83
2021/07/01 12:48:53;;;;;;;2.88;2.33;;;;;;;;;;10496516;28;20032;-87
2021/07/01 12:53:56;;;;;;;2.40;2.10;;;;;;;;;;10492624;28;20063;-86
2021/07/01 12:58:57;;;;;;;2.10;1.90;;;;;;;;;;10495948;28;20112;-88
2021/07/01 13:03:58;;;;;;;2.78;1.90;;;;;;;;;;10513550;28;20498;-82
2021/07/01 13:09:04;;;;;;;4.20;2.08;;;;;;;;;;10509515;28;20035;-85
2021/07/01 13:14:05;;;;;;;2.72;2.40;;;;;;;;;;10482072;28;20029;-83
2021/07/01 13:19:22;;;;;;;5.63;2.47;;;;;;;;;;10500963;28;20021;-84
2021/07/01 13:24:56;;;;;;;3.05;2.38;;;;;;;;;;10509892;28;20021;-87
2021/07/01 13:30:01;;;;;;;3.58;3.28;;;;;;;;;;10500443;28;20020;-87
2021/07/01 13:35:08;;;;;;;4.93;2.97;;;;;;;;;;10500004;28;20016;-87
2021/07/01 13:40:28;;;;;;;4.13;3.13;;;;;;;;;;10498691;28;20464;-86
2021/07/01 13:45:49;;;;;;;4.10;3.10;;;;;;;;;;10509739;28;20036;-87
2021/07/01 13:51:00;;;;;;;5.10;2.92;;;;;;;;;;10496810;28;20029;-84
2021/07/01 13:56:16;;;;;;;6.32;3.60;;;;;;;;;;10501511;28;20028;-87
2021/07/01 14:01:37;;;;;;;3.78;3.03;;;;;;;;;;10490002;28;20059;-85
2021/07/01 14:06:43;;;;;;;4.35;3.40;;;;;;;;;;10512992;28;20100;-87
2021/07/01 14:12:18;;;;;;;4.53;3.40;;;;;;;;;;10515562;28;20097;-84
2021/07/01 14:17:21;;;;;;;4.93;3.65;;;;;;;;;;10505115;28;20023;-86
2021/07/01 14:22:42;;;;;;;4.35;3.20;;;;;;;;;;10399232;28;20579;-87
2021/07/01 14:27:59;;;;;;;7.80;3.60;;;;;;;;;;10383375;28;20179;-87
2021/07/01 14:33:00;;;;;;;4.22;3.83;;;;;;;;;;10463235;28;20040;-87
2021/07/01 14:38:03;;;;;;;5.25;4.20;;;;;;;;;;10501912;28;20477;-85
2021/07/01 14:43:04;;;;;;;4.30;3.83;;;;;;;;;;10500484;28;20039;-87
2021/07/01 14:48:05;;;;;;;5.57;4.05;;;;;;;;;;10518585;28;20059;-86
2021/07/01 14:53:26;;;;;;;4.53;3.92;;;;;;;;;;10499804;28;20024;-86
2021/07/01 14:58:27;;;;;;;4.85;3.80;;;;;;;;;;10509654;28;20032;-83
2021/07/01 15:03:28;;;;;;;6.90;4.80;;;;;;;;;;10510139;28;20115;-85
2021/07/01 15:08:32;;;;;;;5.95;5.03;;;;;;;;;;10521749;28;20032;-88
2021/07/01 15:13:33;;;;;;;6.85;4.05;;;;;;;;;;10525974;28;20100;-87
2021/07/01 15:18:34;;;;;;;5.78;4.50;;;;;;;;;;10538007;28;20028;-87
2021/07/01 15:24:07;;;;;;;5.93;4.25;;;;;;;;;;10515912;28;20021;-87
2021/07/01 15:29:40;;;;;;;4.45;4.05;;;;;;;;;;10490174;28;20051;-87
2021/07/01 15:34:47;;;;;;;7.20;3.90;;;;;;;;;;10474332;28;20033;-87
2021/07/01 15:40:23;;;;;;;6.38;3.30;;;;;;;;;;10532094;28;20494;-87
2021/07/01 15:45:24;;;;;;;5.80;3.67;;;;;;;;;;10378420;28;20034;-87
2021/07/01 15:50:51;;;;;;;5.47;3.58;;;;;;;;;;10374241;28;20423;-88
2021/07/01 15:56:16;;;;;;;6.50;3.60;;;;;;;;;;10385133;28;20540;-84
2021/07/01 16:01:18;;;;;;;5.82;4.72;;;;;;;;;;10460655;28;20029;-85
2021/07/01 16:06:23;;;;;;;6.05;4.28;;;;;;;;;;10520168;28;20027;-84
2021/07/01 16:11:24;;;;;;;6.68;3.80;;;;;;;;;;10525965;28;20020;-84
2021/07/01 16:16:46;;;;;;;3.97;3.58;;;;;;;;;;10545965;28;20021;-82
2021/07/01 16:21:48;;;;;;;6.32;3.80;;;;;;;;;;10527182;28;20033;-85
2021/07/01 16:26:49;;;;;;;5.50;3.83;;;;;;;;;;10499670;28;20096;-86
2021/07/01 16:31:51;;;;;;;4.70;4.20;;;;;;;;;;10509516;28;20020;-87
2021/07/01 16:36:58;;;;;;;6.18;4.63;;;;;;;;;;10510839;28;20100;-87
2021/07/01 16:42:05;;;;;;;6.70;6.00;;;;;;;;;;10514725;28;20086;-84
2021/07/01 16:47:06;;;;;;;6.20;5.63;;;;;;;;;;10517810;28;20021;-84
2021/07/01 16:52:29;;;;;;;5.95;5.13;;;;;;;;;;10517854;28;20029;-85
2021/07/01 16:57:59;;;;;;;6.68;6.00;;;;;;;;;;10557126;22;20044;-87
2021/07/01 17:03:23;;;;;;;8.52;7.72;;;;;;;;;;10548760;28;20031;-87
2021/07/01 17:20:31;;;;;;;9.00;6.25;;;;;;;;;;10462208;28;20024;-86
2021/07/01 17:26:26;;;;;;;9.07;6.32;;;;;;;;;;10339971;28;20034;-88
2021/07/01 17:49:00;;;;;;;9.25;7.90;;;;;;;;;;10384332;28;20404;-86
2021/07/01 18:06:00;;;;;;;11.10;8.90;;;;;;;;;;10508906;28;20032;-86
2021/07/01 18:11:54;;;;;;;13.40;8.52;;;;;;;;;;10342941;28;20034;-87
2021/07/01 18:22:34;;;;;;;54.95;48.60;;;;;;;;;;10344719;28;20042;-85
2021/07/01 18:34:08;;;;;;;14.02;10.07;;;;;;;;;;10299954;28;20031;-86
2021/07/01 18:39:10;;;;;;;13.63;9.88;;;;;;;;;;10335436;28;20461;-88
2021/07/01 18:44:12;;;;;;;13.77;9.60;;;;;;;;;;10484201;28;20036;-86
2021/07/01 18:49:14;;;;;;;13.73;9.30;;;;;;;;;;10490870;28;20434;-86
2021/07/01 18:54:15;;;;;;;14.07;10.20;;;;;;;;;;10492472;28;20029;-88
2021/07/01 18:59:16;;;;;;;14.77;10.80;;;;;;;;;;10494648;28;20115;-88
2021/07/01 19:04:18;;;;;;;14.15;10.13;;;;;;;;;;10496260;28;20086;-87
2021/07/01 19:09:20;;;;;;;14.23;9.15;;;;;;;;;;10495238;28;20032;-86
2021/07/01 19:14:29;;;;;;;14.48;8.65;;;;;;;;;;10496438;28;20028;-87
2021/07/01 19:19:30;;;;;;;12.20;8.93;;;;;;;;;;10498690;28;20016;-86
2021/07/01 19:24:31;;;;;;;13.15;8.77;;;;;;;;;;10497221;28;20290;-87
2021/07/01 19:29:32;;;;;;;13.32;9.65;;;;;;;;;;10498781;28;20024;-86
2021/07/01 19:34:33;;;;;;;12.18;8.60;;;;;;;;;;10495191;28;20533;-88
2021/07/01 19:39:36;;;;;;;12.18;7.43;;;;;;;;;;10497615;28;20024;-87
2021/07/01 19:44:39;;;;;;;11.35;8.15;;;;;;;;;;10497048;28;20024;-89
2021/07/01 19:49:43;;;;;;;11.75;9.10;;;;;;;;;;10511400;28;20054;-89
2021/07/01 19:54:44;;;;;;;9.60;8.43;;;;;;;;;;10499266;28;20047;-88
2021/07/01 19:59:46;;;;;;;9.65;8.00;;;;;;;;;;10492566;28;20033;-88
2021/07/01 20:04:47;;;;;;;10.82;8.63;;;;;;;;;;10489274;28;20554;-88
2021/07/01 20:09:48;;;;;;;10.55;7.97;;;;;;;;;;10488805;28;20040;-88
2021/07/01 20:14:49;;;;;;;10.68;8.43;;;;;;;;;;10486581;28;20024;-89
